createdAt,value
2022-10-29T00:00:53.817Z,6.63
2022-10-29T00:05:56.336Z,7.63
2022-10-29T00:11:09.811Z,6.32
2022-10-29T00:16:35.422Z,7.03
2022-10-29T00:21:38.093Z,7.50
2022-10-29T00:26:39.858Z,7.43
2022-10-29T00:31:41.628Z,6.97
2022-10-29T00:36:43.425Z,6.80
2022-10-29T00:41:45.189Z,6.50
2022-10-29T00:46:53.902Z,6.45
2022-10-29T00:51:57.216Z,6.25
2022-10-29T00:57:04.911Z,7.63
2022-10-29T01:02:07.014Z,6.18
2022-10-29T01:07:09.025Z,6.40
2022-10-29T01:12:48.284Z,6.20
2022-10-29T01:18:11.112Z,6.03
2022-10-29T01:23:21.714Z,6.22
2022-10-29T01:38:48.502Z,7.43
2022-10-29T01:43:59.015Z,7.45
2022-10-29T01:49:06.004Z,6.35
2022-10-29T01:54:11.266Z,6.68
2022-10-29T01:59:23.075Z,6.72
2022-10-29T02:04:48.753Z,8.02
2022-10-29T02:10:11.003Z,7.18
2022-10-29T02:15:17.841Z,7.20
2022-10-29T02:20:19.627Z,7.30
2022-10-29T02:25:21.466Z,6.63
2022-10-29T02:30:23.260Z,6.47
2022-10-29T02:35:25.098Z,7.50
2022-10-29T02:40:26.913Z,7.88
2022-10-29T02:45:28.673Z,7.20
2022-10-29T02:50:30.372Z,7.47
2022-10-29T02:55:32.186Z,7.22
2022-10-29T03:00:33.939Z,7.22
2022-10-29T03:05:37.760Z,7.35
2022-10-29T03:10:39.527Z,7.20
2022-10-29T03:15:44.968Z,7.80
2022-10-29T03:20:47.599Z,7.68
2022-10-29T03:25:56.894Z,8.00
2022-10-29T03:30:59.193Z,9.23
2022-10-29T03:36:06.248Z,8.82
2022-10-29T03:41:10.697Z,8.48
2022-10-29T03:46:12.707Z,8.43
2022-10-29T03:51:14.404Z,7.78
2022-10-29T03:56:16.379Z,7.40
2022-10-29T04:01:18.170Z,7.13
2022-10-29T04:06:20.032Z,7.85
2022-10-29T04:11:22.538Z,8.07
2022-10-29T04:16:24.473Z,7.15
2022-10-29T04:32:09.583Z,7.88
2022-10-29T04:37:11.299Z,6.97
2022-10-29T04:42:12.999Z,7.57
2022-10-29T04:47:14.775Z,6.40
2022-10-29T04:52:16.477Z,7.43
2022-10-29T04:57:18.565Z,8.10
2022-10-29T05:02:20.292Z,7.38
2022-10-29T05:07:22.055Z,6.60
2022-10-29T05:12:23.759Z,8.30
2022-10-29T05:17:25.557Z,7.32
2022-10-29T05:22:27.283Z,8.27
2022-10-29T05:27:29.099Z,7.63
2022-10-29T05:32:31.165Z,7.50
2022-10-29T05:37:32.872Z,6.90
2022-10-29T05:42:38.176Z,6.40
2022-10-29T05:47:39.918Z,6.97
2022-10-29T05:52:41.747Z,6.82
2022-10-29T05:57:43.468Z,7.10
2022-10-29T06:02:45.460Z,6.40
2022-10-29T06:07:52.833Z,6.68
2022-10-29T06:12:54.720Z,5.93
2022-10-29T06:17:56.837Z,6.25
2022-10-29T06:22:59.552Z,6.07
2022-10-29T06:28:09.968Z,6.47
2022-10-29T06:33:11.669Z,5.93
2022-10-29T06:38:13.947Z,6.95
2022-10-29T06:43:15.676Z,6.03
2022-10-29T06:48:21.698Z,5.90
2022-10-29T06:53:24.528Z,5.63
2022-10-29T06:58:26.485Z,5.47
2022-10-29T07:03:28.202Z,6.90
2022-10-29T07:08:30.658Z,6.10
2022-10-29T07:13:32.424Z,6.28
2022-10-29T07:18:34.480Z,6.30
2022-10-29T07:23:36.259Z,6.47
2022-10-29T07:28:37.991Z,6.07
2022-10-29T07:33:39.707Z,6.55
2022-10-29T07:38:41.636Z,5.38
2022-10-29T07:43:43.357Z,5.78
2022-10-29T07:48:45.087Z,5.10
2022-10-29T07:53:46.813Z,6.10
2022-10-29T07:58:48.563Z,5.63
2022-10-29T08:03:51.272Z,6.20
2022-10-29T08:08:52.973Z,4.90
2022-10-29T08:13:54.705Z,5.50
2022-10-29T08:18:56.824Z,5.03
2022-10-29T08:23:58.554Z,5.55
2022-10-29T08:29:00.255Z,4.93
2022-10-29T08:34:04.924Z,5.18
2022-10-29T08:39:08.914Z,4.53
2022-10-29T08:44:10.695Z,4.88
2022-10-29T08:49:33.072Z,5.15
2022-10-29T08:54:39.923Z,4.38
2022-10-29T09:05:19.006Z,4.68
2022-10-29T09:10:33.009Z,3.92
2022-10-29T09:15:59.175Z,4.10
2022-10-29T09:21:25.942Z,3.75
2022-10-29T09:26:48.972Z,4.00
2022-10-29T09:32:11.567Z,4.47
2022-10-29T09:37:34.069Z,5.05
2022-10-29T09:42:41.701Z,3.65
2022-10-29T09:47:53.018Z,4.45
2022-10-29T09:52:55.234Z,4.32
2022-10-29T09:57:58.183Z,3.90
2022-10-29T10:03:29.031Z,4.60
2022-10-29T10:08:32.376Z,4.65
2022-10-29T10:13:50.254Z,3.70
2022-10-29T10:18:52.015Z,4.57
2022-10-29T10:23:55.430Z,4.00
2022-10-29T10:29:12.375Z,4.32
2022-10-29T10:34:18.689Z,3.60
2022-10-29T10:39:32.188Z,3.15
2022-10-29T10:44:34.923Z,3.40
2022-10-29T10:49:38.834Z,3.67
2022-10-29T10:54:45.699Z,3.65
2022-10-29T11:00:07.104Z,4.05
2022-10-29T11:05:22.798Z,3.10
2022-10-29T11:10:40.835Z,3.25
2022-10-29T11:15:58.735Z,3.30
2022-10-29T11:21:14.290Z,3.45
2022-10-29T11:26:44.011Z,3.47
2022-10-29T11:32:06.944Z,3.20
2022-10-29T11:37:21.703Z,2.83
2022-10-29T11:42:23.510Z,4.00
2022-10-29T11:47:42.855Z,3.22
2022-10-29T11:53:18.735Z,3.00
2022-10-29T11:58:57.658Z,3.10
2022-10-29T12:04:22.990Z,3.92
2022-10-29T12:09:47.914Z,3.08
2022-10-29T12:14:53.629Z,3.63
2022-10-29T12:20:25.075Z,3.58
2022-10-29T12:25:43.497Z,3.65
2022-10-29T12:31:24.369Z,3.85
2022-10-29T12:36:52.062Z,3.80
2022-10-29T12:42:14.536Z,8.57
2022-10-29T12:47:46.822Z,6.40
2022-10-29T12:52:48.498Z,5.75
2022-10-29T12:57:50.227Z,3.22
2022-10-29T13:02:53.114Z,4.25
2022-10-29T13:08:03.448Z,4.55
2022-10-29T13:18:30.918Z,3.10
2022-10-29T13:23:37.910Z,3.90
2022-10-29T13:28:39.998Z,2.95
2022-10-29T13:33:41.659Z,2.85
2022-10-29T13:39:07.360Z,3.65
2022-10-29T13:44:26.956Z,3.45
2022-10-29T13:49:33.547Z,2.88
2022-10-29T13:54:38.439Z,3.30
2022-10-29T13:59:52.758Z,3.95
2022-10-29T14:05:11.100Z,3.95
2022-10-29T14:10:20.449Z,3.22
2022-10-29T14:15:22.763Z,2.97
2022-10-29T14:20:28.318Z,3.38
2022-10-29T14:25:38.433Z,3.55
2022-10-29T14:30:40.159Z,2.63
2022-10-29T14:35:42.137Z,3.15
2022-10-29T14:40:45.605Z,3.03
2022-10-29T14:45:47.382Z,3.10
2022-10-29T14:50:56.466Z,3.17
2022-10-29T14:55:59.936Z,2.83
2022-10-29T15:01:05.980Z,3.85
2022-10-29T15:06:17.433Z,4.15
2022-10-29T15:11:33.795Z,3.58
2022-10-29T15:16:38.354Z,4.60
2022-10-29T15:21:43.895Z,4.82
2022-10-29T15:26:49.622Z,4.20
2022-10-29T15:31:55.808Z,4.32
2022-10-29T15:36:58.561Z,4.15
2022-10-29T15:42:01.200Z,3.80
2022-10-29T15:47:21.143Z,3.50
2022-10-29T15:52:28.155Z,3.22
2022-10-29T15:57:31.493Z,3.70
2022-10-29T16:02:33.445Z,3.97
2022-10-29T16:07:35.308Z,4.30
2022-10-29T16:12:37.160Z,3.75
2022-10-29T16:17:38.978Z,3.00
2022-10-29T16:22:40.962Z,4.18
2022-10-29T16:27:43.903Z,3.58
2022-10-29T16:32:46.305Z,4.35
2022-10-29T16:37:48.923Z,4.40
2022-10-29T16:42:51.078Z,4.35
2022-10-29T16:47:53.225Z,4.43
2022-10-29T16:53:12.167Z,4.07
2022-10-29T16:58:15.832Z,3.75
2022-10-29T17:03:18.076Z,3.47
2022-10-29T17:08:20.291Z,4.72
2022-10-29T17:13:22.003Z,5.13
2022-10-29T17:18:24.726Z,4.13
2022-10-29T17:23:27.018Z,5.40
2022-10-29T17:28:28.907Z,5.88
2022-10-29T17:33:30.714Z,5.78
2022-10-29T17:38:32.615Z,5.63
2022-10-29T17:43:34.418Z,6.43
2022-10-29T17:48:36.943Z,5.85
2022-10-29T17:53:39.279Z,7.20
2022-10-29T17:58:41.050Z,6.68
2022-10-29T18:03:42.987Z,5.07
2022-10-29T18:08:45.255Z,4.65
2022-10-29T18:13:48.826Z,5.90
2022-10-29T18:19:01.966Z,5.50
2022-10-29T18:24:04.575Z,5.40
2022-10-29T18:29:09.514Z,4.95
2022-10-29T18:34:12.317Z,4.95
2022-10-29T18:39:14.065Z,6.43
2022-10-29T18:44:15.783Z,4.72
2022-10-29T18:49:17.872Z,4.55
2022-10-29T18:54:20.453Z,4.18
2022-10-29T18:59:22.424Z,4.20
2022-10-29T19:04:24.181Z,4.93
2022-10-29T19:09:26.019Z,4.00
2022-10-29T19:14:28.245Z,5.97
2022-10-29T19:19:30.077Z,5.20
2022-10-29T19:24:31.788Z,5.18
2022-10-29T19:29:33.819Z,7.90
2022-10-29T19:34:35.597Z,6.25
2022-10-29T19:39:37.554Z,5.55
2022-10-29T19:44:39.251Z,5.20
2022-10-29T19:49:41.026Z,4.95
2022-10-29T19:54:42.952Z,5.28
2022-10-29T19:59:44.686Z,4.07
2022-10-29T20:04:46.530Z,4.97
2022-10-29T20:09:48.283Z,5.22
2022-10-29T20:14:50.241Z,3.92
2022-10-29T20:19:51.994Z,4.82
2022-10-29T20:24:53.728Z,4.88
2022-10-29T20:29:55.653Z,5.75
2022-10-29T20:34:57.875Z,4.97
2022-10-29T20:39:59.882Z,5.75
2022-10-29T20:45:01.977Z,5.38
2022-10-29T20:50:04.130Z,5.38
2022-10-29T20:55:06.667Z,5.30
2022-10-29T21:00:09.835Z,5.20
2022-10-29T21:05:11.692Z,6.20
2022-10-29T21:10:13.687Z,5.28
2022-10-29T21:15:15.543Z,5.65
2022-10-29T21:20:17.273Z,6.18
2022-10-29T21:25:19.094Z,6.53
2022-10-29T21:30:24.514Z,7.78
2022-10-29T21:35:26.383Z,7.22
2022-10-29T21:40:28.246Z,6.15
2022-10-29T21:45:30.344Z,6.10
2022-10-29T21:50:32.067Z,6.05
2022-10-29T21:55:36.455Z,6.35
2022-10-29T22:00:38.412Z,6.32
2022-10-29T22:05:40.184Z,6.28
2022-10-29T22:10:42.082Z,5.80
2022-10-29T22:15:45.090Z,6.22
2022-10-29T22:20:46.947Z,6.25
2022-10-29T22:25:51.659Z,5.80
2022-10-29T22:31:00.718Z,6.07
2022-10-29T22:36:11.169Z,5.78
2022-10-29T22:41:15.579Z,5.78
2022-10-29T22:46:19.273Z,5.32
2022-10-29T22:51:26.446Z,6.20
2022-10-29T22:56:38.744Z,6.15
2022-10-29T23:01:44.295Z,5.03
2022-10-29T23:06:47.840Z,6.05
2022-10-29T23:11:51.631Z,5.82
2022-10-29T23:16:53.366Z,5.82
2022-10-29T23:21:55.408Z,6.43
2022-10-29T23:26:57.282Z,5.25
2022-10-29T23:32:04.344Z,6.05
2022-10-29T23:37:43.908Z,5.68
2022-10-29T23:42:45.705Z,6.07
2022-10-29T23:47:47.430Z,5.15
2022-10-29T23:52:49.156Z,5.95
2022-10-29T23:57:50.992Z,5.80
